Time;durP1;ratioP1;P1;durP2;ratioP2;P2;SDS_P1;SDS_P2;PMS_P1;PMS_P2;Temp;Humidity;BMP_temperature;BMP_pressure;BME280_temperature;BME280_humidity;BME280_pressure;Samples;Min_cycle;Max_cycle;Signal;HPM_P1;HPM_P2
2022/09/29 00:01:34;;;;;;;;;;;;;;;20.97;29.03;97035.53;4975918;28;636;-83
2022/09/29 00:03:59;;;;;;;;;;;;;;;20.91;28.91;97031.72;4975761;28;868;-82
2022/09/29 00:06:25;;;;;;;;;;;;;;;20.90;29.05;97027.34;4975785;28;1930;-83
2022/09/29 00:08:50;;;;;;;;;;;;;;;20.89;28.92;97017.28;4979589;28;978;-83
2022/09/29 00:11:17;;;;;;;;;;;;;;;20.97;29.04;97015.72;4995131;28;889;-83
2022/09/29 00:13:42;;;;;;;;;;;;;;;21.24;28.70;97018.69;4979516;28;1258;-83
2022/09/29 00:16:08;;;;;;;;;;;;;;;21.58;27.97;97014.06;4982738;28;934;-82
2022/09/29 00:18:33;;;;;;;;;;;;;;;21.29;28.66;97015.22;4999046;28;1281;-83
2022/09/29 00:21:00;;;;;;;;;;;;;;;20.97;29.04;97010.06;4982901;28;1137;-83
2022/09/29 00:23:26;;;;;;;;;;;;;;;21.08;28.78;97018.91;4998711;28;802;-83
2022/09/29 00:26:05;;;;;;;;;;;;;;;20.86;29.36;97021.03;5004466;28;1975;-83
2022/09/29 00:28:31;;;;;;;;;;;;;;;20.84;29.06;97017.88;5035762;28;786;-83
2022/09/29 00:30:57;;;;;;;;;;;;;;;20.75;29.18;97016.56;5036271;28;1068;-83
2022/09/29 00:33:23;;;;;;;;;;;;;;;20.85;29.17;97025.91;5019413;28;1300;-83
2022/09/29 00:35:55;;;;;;;;;;;;;;;21.27;28.42;97012.09;5020128;28;1142;-83
2022/09/29 00:38:20;;;;;;;;;;;;;;;21.16;28.49;97017.41;5017799;28;868;-83
2022/09/29 00:40:46;;;;;;;;;;;;;;;21.01;29.02;97022.03;5018113;28;925;-82
2022/09/29 00:43:12;;;;;;;;;;;;;;;20.74;29.52;97015.00;5017986;28;816;-83
2022/09/29 00:45:37;;;;;;;;;;;;;;;20.84;29.01;97023.53;5001629;28;1975;-83
2022/09/29 00:48:05;;;;;;;;;;;;;;;20.73;29.40;97016.25;5017943;28;947;-83
2022/09/29 00:50:41;;;;;;;;;;;;;;;20.92;29.12;97013.50;5001905;28;763;-83
2022/09/29 00:53:10;;;;;;;;;;;;;;;21.07;29.01;97014.53;4985524;28;1124;-83
2022/09/29 00:55:43;;;;;;;;;;;;;;;21.36;28.35;97021.91;5002155;28;724;-83
2022/09/29 00:58:08;;;;;;;;;;;;;;;21.41;28.16;97015.63;5001448;28;831;-82
2022/09/29 01:00:34;;;;;;;;;;;;;;;21.30;28.28;97022.50;5001518;28;1117;-81
2022/09/29 01:03:01;;;;;;;;;;;;;;;21.11;28.79;97020.81;4985499;28;1231;-83
2022/09/29 01:05:28;;;;;;;;;;;;;;;20.89;29.25;97015.25;5001252;28;1914;-83
2022/09/29 01:07:53;;;;;;;;;;;;;;;20.91;29.07;97024.03;4997882;28;991;-83
2022/09/29 01:10:19;;;;;;;;;;;;;;;21.06;28.68;97025.06;5015871;28;828;-83
2022/09/29 01:12:45;;;;;;;;;;;;;;;20.88;28.95;97027.81;5017702;28;834;-83
2022/09/29 01:15:11;;;;;;;;;;;;;;;20.67;29.33;97023.75;5001090;28;814;-82
2022/09/29 01:17:36;;;;;;;;;;;;;;;20.85;29.13;97025.91;5001490;28;1152;-83
2022/09/29 01:20:14;;;;;;;;;;;;;;;21.18;28.69;97031.84;5001051;28;865;-83
2022/09/29 01:22:51;;;;;;;;;;;;;;;21.55;27.96;97026.31;5001258;28;945;-83
2022/09/29 01:25:31;;;;;;;;;;;;;;;21.24;28.61;97030.00;5000775;28;1914;-83
2022/09/29 01:28:09;;;;;;;;;;;;;;;20.98;29.11;97022.97;4984956;28;1116;-83
2022/09/29 01:30:52;;;;;;;;;;;;;;;21.00;29.00;97026.91;5017287;28;1033;-83
2022/09/29 01:33:18;;;;;;;;;;;;;;;21.00;28.83;97026.13;5017114;28;816;-83
2022/09/29 01:35:52;;;;;;;;;;;;;;;20.89;29.46;97025.75;5017348;28;1303;-83
2022/09/29 01:38:41;;;;;;;;;;;;;;;20.95;28.98;97029.56;5019420;28;996;-83
2022/09/29 01:41:11;;;;;;;;;;;;;;;21.35;28.56;97028.78;5019157;28;915;-83
2022/09/29 01:43:42;;;;;;;;;;;;;;;21.45;28.49;97033.22;5034504;28;708;-83
2022/09/29 01:46:07;;;;;;;;;;;;;;;21.11;28.96;97032.16;5018196;28;1926;-83
2022/09/29 01:48:34;;;;;;;;;;;;;;;21.23;28.63;97025.56;5018015;28;1064;-83
2022/09/29 01:51:02;;;;;;;;;;;;;;;21.06;28.77;97024.25;5018272;28;1157;-83
2022/09/29 01:53:29;;;;;;;;;;;;;;;20.75;29.57;97027.88;5034094;28;849;-83
2022/09/29 01:55:57;;;;;;;;;;;;;;;20.94;29.25;97036.47;5034041;28;865;-83
2022/09/29 01:58:25;;;;;;;;;;;;;;;20.80;29.36;97030.09;5034178;28;703;-83
2022/09/29 02:00:51;;;;;;;;;;;;;;;21.27;28.82;97033.94;5018002;28;1187;-82
2022/09/29 02:03:20;;;;;;;;;;;;;;;21.54;28.06;97036.06;5017800;28;1128;-83
2022/09/29 02:05:47;;;;;;;;;;;;;;;21.07;29.00;97042.81;4997060;28;1995;-83
2022/09/29 02:08:21;;;;;;;;;;;;;;;21.09;28.86;97037.50;4996903;28;888;-83
2022/09/29 02:10:48;;;;;;;;;;;;;;;20.75;29.45;97033.53;4997302;28;854;-83
2022/09/29 02:13:14;;;;;;;;;;;;;;;20.93;29.45;97037.69;4997065;28;720;-83
2022/09/29 02:15:39;;;;;;;;;;;;;;;20.93;29.29;97030.00;4996680;28;876;-83
2022/09/29 02:18:10;;;;;;;;;;;;;;;20.91;29.08;97032.53;4997223;28;1348;-83
2022/09/29 02:20:35;;;;;;;;;;;;;;;20.59;29.86;97028.09;4980786;28;1120;-83
2022/09/29 02:23:00;;;;;;;;;;;;;;;20.46;30.06;97027.34;4963988;28;905;-83
2022/09/29 02:25:27;;;;;;;;;;;;;;;21.14;28.87;97030.41;4996469;28;1914;-83
2022/09/29 02:27:53;;;;;;;;;;;;;;;21.25;28.68;97027.97;4980429;28;1208;-83
2022/09/29 02:30:19;;;;;;;;;;;;;;;21.28;28.49;97030.63;4980565;28;821;-83
2022/09/29 02:32:45;;;;;;;;;;;;;;;20.93;29.37;97012.25;4996178;28;1054;-83
2022/09/29 02:35:11;;;;;;;;;;;;;;;20.84;29.28;97017.88;4996385;28;739;-83
2022/09/29 02:38:03;;;;;;;;;;;;;;;20.93;29.17;97032.03;5014368;28;886;-83
2022/09/29 02:40:35;;;;;;;;;;;;;;;20.71;29.49;97021.56;4977052;28;991;-83
2022/09/29 02:43:29;;;;;;;;;;;;;;;20.88;29.19;97024.97;4977173;28;827;-83
2022/09/29 02:46:06;;;;;;;;;;;;;;;20.78;29.45;97018.50;4919084;28;1989;-83
2022/09/29 02:48:35;;;;;;;;;;;;;;;21.24;28.80;97024.34;4919666;29;776;-82
2022/09/29 02:51:04;;;;;;;;;;;;;;;21.57;28.13;97024.63;4919691;29;1009;-83
2022/09/29 02:53:58;;;;;;;;;;;;;;;21.22;28.86;97026.84;4884566;29;1023;-83
2022/09/29 03:00:08;;;;;;;;;;;;;;;21.01;29.08;97022.03;4863215;29;913;-83
2022/09/29 03:02:33;;;;;;;;;;;;;;;20.94;29.17;97033.66;4847735;29;1050;-83
2022/09/29 03:04:59;;;;;;;;;;;;;;;20.99;29.07;97030.22;4862520;29;868;-82
2022/09/29 03:07:24;;;;;;;;;;;;;;;20.88;29.32;97030.63;4847062;29;1993;-83
2022/09/29 03:09:50;;;;;;;;;;;;;;;21.04;29.09;97032.44;4862078;29;1016;-83
2022/09/29 03:12:17;;;;;;;;;;;;;;;21.28;28.71;97030.63;4862380;29;866;-82
2022/09/29 03:14:42;;;;;;;;;;;;;;;21.43;28.22;97024.41;4846988;29;907;-82
2022/09/29 03:17:08;;;;;;;;;;;;;;;21.09;29.05;97026.19;4830835;29;913;-82
2022/09/29 03:19:33;;;;;;;;;;;;;;;20.93;29.12;97029.22;4825605;29;882;-82
2022/09/29 03:21:58;;;;;;;;;;;;;;;20.85;29.22;97027.94;4859894;29;882;-82
2022/09/29 03:24:25;;;;;;;;;;;;;;;20.94;29.25;97028.00;4935994;29;1127;-82
2022/09/29 03:26:50;;;;;;;;;;;;;;;20.88;29.29;97032.66;4940085;29;1919;-82
2022/09/29 03:29:16;;;;;;;;;;;;;;;20.68;29.68;97025.34;4956106;29;1165;-82
2022/09/29 03:31:41;;;;;;;;;;;;;;;20.74;29.28;97020.66;4958615;28;1071;-82
2022/09/29 03:34:06;;;;;;;;;;;;;;;21.22;28.70;97032.50;5012318;28;942;-82
2022/09/29 03:36:32;;;;;;;;;;;;;;;21.39;28.32;97018.91;5012857;28;850;-82
2022/09/29 03:38:57;;;;;;;;;;;;;;;21.27;28.37;97029.06;4997708;28;886;-82
2022/09/29 03:41:23;;;;;;;;;;;;;;;21.20;28.78;97035.00;5012961;28;813;-82
2022/09/29 03:43:48;;;;;;;;;;;;;;;20.90;29.00;97038.66;4997446;28;740;-82
2022/09/29 03:46:14;;;;;;;;;;;;;;;21.01;29.08;97031.31;4996451;28;1910;-82
2022/09/29 03:48:40;;;;;;;;;;;;;;;20.90;28.91;97025.28;5016768;28;806;-82
2022/09/29 03:51:05;;;;;;;;;;;;;;;21.22;28.64;97032.50;5019281;28;833;-82
2022/09/29 03:53:32;;;;;;;;;;;;;;;21.26;28.38;97021.81;5003879;28;866;-82
2022/09/29 03:55:57;;;;;;;;;;;;;;;21.44;28.33;97014.66;5002108;28;933;-82
2022/09/29 03:58:23;;;;;;;;;;;;;;;21.08;28.60;97022.53;5002877;28;1108;-82
2022/09/29 04:00:48;;;;;;;;;;;;;;;21.16;28.77;97023.06;5004038;28;751;-82
2022/09/29 04:06:49;;;;;;;;;;;;;;;20.73;29.12;97021.91;5003869;28;1977;-82
2022/09/29 04:09:14;;;;;;;;;;;;;;;20.68;29.43;97031.00;5019540;28;719;-82
2022/09/29 04:11:40;;;;;;;;;;;;;;;20.70;29.33;97031.31;5019559;28;1174;-82
2022/09/29 04:17:42;;;;;;;;;;;;;;;21.44;28.32;97034.47;5003968;28;695;-82
2022/09/29 04:20:08;;;;;;;;;;;;;;;21.13;28.82;97035.28;5004135;28;713;-82
2022/09/29 04:22:33;;;;;;;;;;;;;;;20.95;28.98;97041.66;5021036;28;868;-82
2022/09/29 04:24:59;;;;;;;;;;;;;;;21.06;28.67;97038.41;5021265;28;992;-82
2022/09/29 04:27:24;;;;;;;;;;;;;;;20.87;29.04;97033.91;5021168;28;1979;-82
2022/09/29 04:29:50;;;;;;;;;;;;;;;20.93;29.14;97040.53;5004798;28;1224;-82
2022/09/29 04:32:15;;;;;;;;;;;;;;;20.70;29.18;97028.47;5021368;28;1320;-82
2022/09/29 04:34:41;;;;;;;;;;;;;;;21.00;28.74;97026.13;5020966;28;723;-82
2022/09/29 04:37:10;;;;;;;;;;;;;;;21.30;28.52;97033.03;4988698;28;1219;-82
2022/09/29 04:39:35;;;;;;;;;;;;;;;21.03;28.99;97031.63;5005014;28;748;-82
2022/09/29 04:42:01;;;;;;;;;;;;;;;21.09;28.75;97029.00;5004604;28;1353;-82
2022/09/29 04:44:26;;;;;;;;;;;;;;;21.08;28.72;97027.41;5004542;28;799;-82
2022/09/29 04:46:52;;;;;;;;;;;;;;;20.95;28.90;97040.88;5020996;28;1967;-82
2022/09/29 04:49:17;;;;;;;;;;;;;;;20.95;29.02;97036.00;5020767;28;822;-82
2022/09/29 04:51:43;;;;;;;;;;;;;;;20.84;29.00;97046.94;5004801;28;743;-82
2022/09/29 04:54:08;;;;;;;;;;;;;;;20.93;29.16;97049.00;5007373;28;920;-82
2022/09/29 04:56:34;;;;;;;;;;;;;;;21.27;28.43;97050.91;5018961;28;790;-82
2022/09/29 04:58:59;;;;;;;;;;;;;;;21.50;28.22;97055.25;5003105;28;751;-82
2022/09/29 05:01:25;;;;;;;;;;;;;;;21.07;28.66;97048.47;5015458;28;833;-82
2022/09/29 05:03:50;;;;;;;;;;;;;;;20.73;29.58;97050.19;4999717;28;1487;-82
2022/09/29 05:06:16;;;;;;;;;;;;;;;20.80;29.18;97038.59;5000346;28;1914;-81
2022/09/29 05:08:41;;;;;;;;;;;;;;;20.81;29.20;97048.63;5037501;28;1265;-81
2022/09/29 05:14:41;;;;;;;;;;;;;;;21.04;29.19;97057.88;5037237;28;986;-81
2022/09/29 05:17:06;;;;;;;;;;;;;;;21.39;28.40;97058.50;5037271;28;763;-82
2022/09/29 05:19:32;;;;;;;;;;;;;;;21.17;28.86;97054.94;5020732;28;973;-83
2022/09/29 05:21:58;;;;;;;;;;;;;;;21.00;28.97;97054.41;5020920;28;735;-83
2022/09/29 05:24:24;;;;;;;;;;;;;;;20.97;29.16;97055.31;5037272;28;1095;-82
2022/09/29 05:26:49;;;;;;;;;;;;;;;20.98;29.36;97062.56;5020895;28;1977;-82
2022/09/29 05:29:15;;;;;;;;;;;;;;;20.77;29.29;97070.59;5037058;28;720;-82
2022/09/29 05:31:41;;;;;;;;;;;;;;;20.94;29.06;97076.06;5037486;28;1124;-82
2022/09/29 05:34:07;;;;;;;;;;;;;;;20.92;29.16;97082.16;4997668;28;1220;-82
2022/09/29 05:36:32;;;;;;;;;;;;;;;21.00;28.95;97071.38;4965679;28;1360;-83
2022/09/29 05:38:58;;;;;;;;;;;;;;;20.86;29.21;97080.41;4981535;28;1040;-82
2022/09/29 05:41:23;;;;;;;;;;;;;;;20.71;29.73;97086.59;4997609;28;744;-82
2022/09/29 05:43:49;;;;;;;;;;;;;;;21.17;28.76;97092.50;4981264;28;1161;-83
2022/09/29 05:46:15;;;;;;;;;;;;;;;21.50;28.36;97094.88;4954405;28;1911;-83
2022/09/29 05:48:42;;;;;;;;;;;;;;;21.24;28.84;97089.41;4961808;28;1261;-82
2022/09/29 05:51:09;;;;;;;;;;;;;;;21.11;28.90;97082.28;4978510;28;1150;-83
2022/09/29 05:53:34;;;;;;;;;;;;;;;21.09;28.87;97074.25;4977728;28;893;-82
2022/09/29 05:56:03;;;;;;;;;;;;;;;20.92;29.43;97070.06;4978269;28;862;-82
2022/09/29 05:58:28;;;;;;;;;;;;;;;20.88;29.43;97069.41;4958126;29;949;-83
2022/09/29 06:00:54;;;;;;;;;;;;;;;20.81;29.43;97078.97;4958810;28;831;-83
2022/09/29 06:03:19;;;;;;;;;;;;;;;21.21;29.20;97076.19;4958251;29;969;-83
2022/09/29 06:05:45;;;;;;;;;;;;;;;21.32;28.77;97082.25;4973617;28;1981;-83
2022/09/29 06:08:11;;;;;;;;;;;;;;;21.17;29.15;97078.38;4977808;28;955;-83
2022/09/29 06:10:36;;;;;;;;;;;;;;;21.04;29.39;97077.69;4977328;28;704;-82
2022/09/29 06:13:07;;;;;;;;;;;;;;;21.12;28.97;97073.31;4976899;28;805;-83
2022/09/29 06:15:33;;;;;;;;;;;;;;;21.08;29.42;97076.28;4977235;28;999;-83
2022/09/29 06:17:59;;;;;;;;;;;;;;;20.94;29.25;97073.22;4977579;28;892;-83
2022/09/29 06:20:25;;;;;;;;;;;;;;;20.72;29.75;97071.19;4977376;28;799;-83
2022/09/29 06:22:54;;;;;;;;;;;;;;;20.74;29.55;97065.09;4977211;28;854;-83
2022/09/29 06:25:19;;;;;;;;;;;;;;;20.70;29.75;97079.38;4977313;28;1906;-83
2022/09/29 06:27:45;;;;;;;;;;;;;;;20.90;29.55;97083.88;4977173;28;731;-83
2022/09/29 06:30:12;;;;;;;;;;;;;;;21.44;28.72;97088.25;4993947;28;790;-83
2022/09/29 06:32:37;;;;;;;;;;;;;;;21.43;28.43;97086.69;5014044;28;1270;-83
2022/09/29 06:37:47;;;;;;;;;;;;;;;21.12;29.40;97087.47;5011455;28;912;-83
2022/09/29 06:40:13;;;;;;;;;;;;;;;21.14;29.23;97093.47;5013433;28;914;-82
2022/09/29 06:42:38;;;;;;;;;;;;;;;21.74;30.02;97095.91;4996862;28;965;-78
2022/09/29 06:45:04;;;;;;;;;;;;;;;22.02;32.06;97093.13;4997530;28;1030;-79
2022/09/29 06:47:29;;;;;;;;;;;;;;;21.82;33.97;97096.41;4997658;28;1898;-78
2022/09/29 06:49:55;;;;;;;;;;;;;;;22.06;33.89;97090.94;4997489;28;1063;-78
2022/09/29 06:52:21;;;;;;;;;;;;;;;22.12;34.42;97097.56;4997689;28;957;-79
2022/09/29 06:54:46;;;;;;;;;;;;;;;22.21;34.75;97096.81;4997281;28;1043;-78
2022/09/29 06:57:12;;;;;;;;;;;;;;;22.24;34.84;97105.16;4997422;28;1046;-82
2022/09/29 06:59:38;;;;;;;;;;;;;;;22.18;34.22;97109.88;4997915;28;892;-79
2022/09/29 07:02:03;;;;;;;;;;;;;;;22.70;33.41;97099.47;4998396;28;914;-82
2022/09/29 07:04:29;;;;;;;;;;;;;;;22.70;33.31;97102.31;4998273;28;822;-83
2022/09/29 07:06:54;;;;;;;;;;;;;;;22.63;33.02;97099.78;4998622;28;1918;-85
2022/09/29 07:09:20;;;;;;;;;;;;;;;22.56;32.98;97097.28;4998319;28;912;-84
2022/09/29 07:11:47;;;;;;;;;;;;;;;22.76;32.65;97094.75;5013350;28;885;-83
2022/09/29 07:14:17;;;;;;;;;;;;;;;22.38;33.07;97094.44;5013508;28;960;-83
2022/09/29 07:16:42;;;;;;;;;;;;;;;23.37;31.12;97098.41;4998101;28;951;-82
2022/09/29 07:19:08;;;;;;;;;;;;;;;23.03;32.05;97108.13;4996787;28;1253;-81
2022/09/29 07:21:33;;;;;;;;;;;;;;;23.33;31.56;97097.00;4998280;28;905;-82
2022/09/29 07:23:59;;;;;;;;;;;;;;;23.08;32.04;97106.69;4997258;28;885;-84
2022/09/29 07:26:24;;;;;;;;;;;;;;;23.25;31.79;97095.75;5013258;28;1918;-83
2022/09/29 07:28:50;;;;;;;;;;;;;;;22.77;32.01;97107.66;5012564;28;908;-81
2022/09/29 07:31:19;;;;;;;;;;;;;;;22.83;32.15;97117.09;5012622;28;1208;-84
2022/09/29 07:33:44;;;;;;;;;;;;;;;22.81;32.58;97113.97;4997552;28;1096;-81
2022/09/29 07:36:10;;;;;;;;;;;;;;;22.63;32.55;97102.63;5012245;28;918;-81
2022/09/29 07:38:36;;;;;;;;;;;;;;;22.39;32.80;97115.88;4995356;28;989;-82
2022/09/29 07:41:02;;;;;;;;;;;;;;;22.64;32.30;97104.22;5012668;28;818;-81
2022/09/29 07:43:27;;;;;;;;;;;;;;;22.47;32.67;97105.78;5012412;28;958;-81
2022/09/29 07:45:53;;;;;;;;;;;;;;;22.49;33.24;97103.28;5012754;28;1977;-80
2022/09/29 07:48:18;;;;;;;;;;;;;;;23.01;32.40;97099.31;4997294;28;906;-80
2022/09/29 07:50:44;;;;;;;;;;;;;;;23.36;31.51;97104.53;5012666;28;974;-80
2022/09/29 07:53:09;;;;;;;;;;;;;;;23.55;31.28;97116.63;4997170;28;879;-79
2022/09/29 07:55:35;;;;;;;;;;;;;;;23.12;31.92;97121.50;4996880;28;1090;-80
2022/09/29 07:58:00;;;;;;;;;;;;;;;22.80;32.02;97115.22;4996838;28;858;-80
2022/09/29 08:00:26;;;;;;;;;;;;;;;22.91;31.99;97117.59;5011764;28;900;-80
2022/09/29 08:02:51;;;;;;;;;;;;;;;23.00;31.73;97114.75;4997131;28;859;-80
2022/09/29 08:05:18;;;;;;;;;;;;;;;22.95;31.52;97106.06;4996935;28;1991;-80
2022/09/29 08:07:43;;;;;;;;;;;;;;;23.03;31.20;97113.00;4997291;28;960;-81
2022/09/29 08:10:09;;;;;;;;;;;;;;;22.92;31.52;97112.72;4997233;28;883;-81
2022/09/29 08:12:34;;;;;;;;;;;;;;;22.51;31.73;97112.09;4996043;28;946;-81
2022/09/29 08:15:00;;;;;;;;;;;;;;;22.59;31.41;97107.69;4997401;28;970;-82
2022/09/29 08:17:25;;;;;;;;;;;;;;;22.31;32.48;97121.06;4998436;28;923;-74
2022/09/29 08:19:51;;;;;;;;;;;;;;;22.49;34.06;97121.06;5010719;28;987;-77
2022/09/29 08:22:16;;;;;;;;;;;;;;;22.95;34.24;97120.25;4996572;28;1045;-76
2022/09/29 08:24:41;;;;;;;;;;;;;;;22.85;34.48;97120.25;5010743;28;1037;-81
2022/09/29 08:27:07;;;;;;;;;;;;;;;22.52;34.21;97111.59;4997110;28;1985;-81
2022/09/29 08:29:32;;;;;;;;;;;;;;;22.45;33.33;97119.66;4996116;28;1209;-81
2022/09/29 08:31:58;;;;;;;;;;;;;;;22.08;33.52;97125.25;4997679;28;1196;-81
2022/09/29 08:34:23;;;;;;;;;;;;;;;21.93;33.08;97118.63;4997193;28;830;-81
2022/09/29 08:36:49;;;;;;;;;;;;;;;21.95;32.94;97121.75;5000484;28;782;-80
2022/09/29 08:39:15;;;;;;;;;;;;;;;22.09;31.84;97116.28;5000287;28;861;-81
2022/09/29 08:41:45;;;;;;;;;;;;;;;21.93;31.86;97118.63;5000666;28;843;-81
2022/09/29 08:44:13;;;;;;;;;;;;;;;22.01;31.29;97122.69;4998099;28;985;-81
2022/09/29 08:46:43;;;;;;;;;;;;;;;22.05;31.17;97114.84;4998109;28;1903;-81
2022/09/29 08:49:10;;;;;;;;;;;;;;;21.88;31.18;97117.19;4998212;28;951;-81
2022/09/29 08:51:43;;;;;;;;;;;;;;;21.96;30.55;97134.66;4982304;28;807;-81
2022/09/29 08:54:16;;;;;;;;;;;;;;;21.85;30.54;97133.06;4962626;28;1240;-81
2022/09/29 08:56:41;;;;;;;;;;;;;;;21.78;30.28;97129.75;4978592;28;924;-81
2022/09/29 08:59:08;;;;;;;;;;;;;;;21.94;30.10;97125.84;4978390;28;1080;-81
2022/09/29 09:01:47;;;;;;;;;;;;;;;21.65;30.41;97127.00;4962439;28;775;-81
2022/09/29 09:04:21;;;;;;;;;;;;;;;21.80;29.78;97122.34;4962529;28;1433;-81
2022/09/29 09:06:55;;;;;;;;;;;;;;;21.84;29.83;97131.47;4962245;28;1907;-81
2022/09/29 09:09:40;;;;;;;;;;;;;;;21.74;29.61;97124.22;4962228;28;881;-81
2022/09/29 09:12:21;;;;;;;;;;;;;;;21.70;29.59;97129.22;4962443;28;1017;-81
2022/09/29 09:14:54;;;;;;;;;;;;;;;21.67;29.50;97124.53;4984962;28;796;-81
2022/09/29 09:17:24;;;;;;;;;;;;;;;21.53;29.86;97119.44;4997670;28;838;-81
2022/09/29 09:19:54;;;;;;;;;;;;;;;21.63;29.85;97123.88;4997706;28;955;-80
2022/09/29 09:22:22;;;;;;;;;;;;;;;21.45;30.09;97106.81;4981702;28;1224;-80
2022/09/29 09:24:48;;;;;;;;;;;;;;;21.48;29.83;97117.19;4985848;28;1267;-80
2022/09/29 09:27:21;;;;;;;;;;;;;;;21.91;28.97;97119.06;4999950;28;1976;-81
2022/09/29 09:29:46;;;;;;;;;;;;;;;21.65;29.37;97121.34;5014932;28;791;-81
2022/09/29 09:32:15;;;;;;;;;;;;;;;21.43;29.71;97114.97;4997601;28;1105;-80
2022/09/29 09:34:44;;;;;;;;;;;;;;;21.44;29.62;97122.22;5014692;28;744;-80
2022/09/29 09:37:15;;;;;;;;;;;;;;;21.47;29.49;97122.06;5015656;28;1190;-84
2022/09/29 09:39:47;;;;;;;;;;;;;;;21.72;29.09;97126.72;4999501;28;1244;-84
2022/09/29 09:42:13;;;;;;;;;;;;;;;21.62;29.40;97116.63;5016160;28;798;-85
2022/09/29 09:44:40;;;;;;;;;;;;;;;21.65;29.29;97132.66;4998964;28;775;-84
2022/09/29 09:47:15;;;;;;;;;;;;;;;21.63;29.26;97129.53;5000736;28;1902;-84
2022/09/29 09:49:42;;;;;;;;;;;;;;;21.24;29.95;97142.34;4999997;28;696;-82
2022/09/29 09:52:11;;;;;;;;;;;;;;;21.33;29.61;97146.06;4997808;28;889;-83
2022/09/29 09:54:41;;;;;;;;;;;;;;;21.49;29.23;97147.84;4998200;28;1214;-83
2022/09/29 09:57:25;;;;;;;;;;;;;;;21.52;29.36;97140.50;4998459;28;941;-83
2022/09/29 10:00:09;;;;;;;;;;;;;;;21.49;29.50;97138.59;4997616;28;755;-83
2022/09/29 10:02:50;;;;;;;;;;;;;;;21.46;29.25;97131.03;4997956;28;929;-83
2022/09/29 10:05:17;;;;;;;;;;;;;;;21.50;29.42;97128.84;4997912;28;763;-83
2022/09/29 10:07:43;;;;;;;;;;;;;;;21.38;29.21;97138.22;4997655;28;1898;-83
2022/09/29 10:10:15;;;;;;;;;;;;;;;21.59;29.32;97143.03;4997446;28;787;-83
2022/09/29 10:12:40;;;;;;;;;;;;;;;21.40;29.61;97138.53;4997886;28;811;-83
2022/09/29 10:15:19;;;;;;;;;;;;;;;21.27;29.73;97142.22;4997170;28;948;-83
2022/09/29 10:17:45;;;;;;;;;;;;;;;21.25;29.59;97144.75;4997333;28;1264;-82
2022/09/29 10:20:11;;;;;;;;;;;;;;;21.18;29.71;97142.16;4997506;28;808;-83
2022/09/29 10:22:36;;;;;;;;;;;;;;;21.27;29.79;97145.06;4998043;28;831;-83
2022/09/29 10:25:11;;;;;;;;;;;;;;;21.25;29.80;97141.91;4999338;28;723;-83
2022/09/29 10:27:39;;;;;;;;;;;;;;;21.30;29.54;97132.84;4997166;28;1906;-83
2022/09/29 10:30:04;;;;;;;;;;;;;;;21.41;29.21;97126.78;4980609;28;1293;-83
2022/09/29 10:32:36;;;;;;;;;;;;;;;21.26;29.54;97139.88;4996649;28;1190;-82
2022/09/29 10:35:14;;;;;;;;;;;;;;;21.28;29.47;97126.81;4980692;28;1353;-83
2022/09/29 10:37:40;;;;;;;;;;;;;;;21.09;30.03;97125.16;4996661;28;946;-83
2022/09/29 10:40:11;;;;;;;;;;;;;;;21.36;29.48;97126.59;4997216;28;877;-83
2022/09/29 10:42:37;;;;;;;;;;;;;;;21.19;29.53;97123.97;4996666;28;795;-83
2022/09/29 10:45:16;;;;;;;;;;;;;;;21.17;29.58;97120.81;4996638;28;941;-83
2022/09/29 10:47:43;;;;;;;;;;;;;;;21.15;29.65;97128.97;4996204;28;1906;-82
2022/09/29 10:50:19;;;;;;;;;;;;;;;21.14;29.73;97120.94;4980344;28;1145;-82
2022/09/29 10:52:50;;;;;;;;;;;;;;;21.15;29.80;97112.00;4996352;28;854;-82
2022/09/29 10:55:36;;;;;;;;;;;;;;;21.42;29.36;97107.75;4996333;28;739;-82
2022/09/29 10:58:04;;;;;;;;;;;;;;;21.41;29.11;97115.44;4981566;28;931;-82
2022/09/29 11:00:39;;;;;;;;;;;;;;;21.36;29.18;97109.63;5013856;28;807;-82
2022/09/29 11:03:07;;;;;;;;;;;;;;;21.05;29.72;97119.66;4998209;28;712;-82
2022/09/29 11:05:33;;;;;;;;;;;;;;;21.08;29.80;97115.09;5013575;28;1918;-82
2022/09/29 11:07:58;;;;;;;;;;;;;;;21.07;29.80;97105.03;5013623;28;751;-82
2022/09/29 11:10:27;;;;;;;;;;;;;;;21.04;29.67;97100.31;4997521;28;1627;-82
2022/09/29 11:12:52;;;;;;;;;;;;;;;21.09;29.57;97102.53;4998640;28;735;-82
2022/09/29 11:15:22;;;;;;;;;;;;;;;21.28;29.41;97103.41;4999086;28;1216;-82
2022/09/29 11:17:50;;;;;;;;;;;;;;;21.22;29.47;97103.22;4967339;28;1130;-82
2022/09/29 11:20:17;;;;;;;;;;;;;;;21.23;29.41;97096.31;4999436;28;939;-82
2022/09/29 11:22:47;;;;;;;;;;;;;;;21.23;29.36;97090.66;4983281;28;712;-82
2022/09/29 11:25:16;;;;;;;;;;;;;;;21.09;29.60;97091.22;4999440;28;1299;-82
2022/09/29 11:28:00;;;;;;;;;;;;;;;21.08;30.07;97086.81;5015331;28;1902;-82
2022/09/29 11:30:32;;;;;;;;;;;;;;;21.01;29.74;97089.91;4998832;28;1083;-82
2022/09/29 11:33:10;;;;;;;;;;;;;;;21.17;29.38;97098.16;5015256;28;850;-82
2022/09/29 11:36:09;;;;;;;;;;;;;;;21.08;29.93;97100.94;4976695;28;1238;-82
2022/09/29 11:38:40;;;;;;;;;;;;;;;21.07;29.56;97102.19;4975957;28;808;-82
2022/09/29 11:41:19;;;;;;;;;;;;;;;21.01;29.92;97107.66;4960748;28;834;-82
2022/09/29 11:43:46;;;;;;;;;;;;;;;20.81;30.23;97108.00;4959900;28;752;-82
2022/09/29 11:46:21;;;;;;;;;;;;;;;21.06;29.67;97109.13;4960076;28;1915;-82
2022/09/29 11:48:52;;;;;;;;;;;;;;;21.37;30.17;97105.53;4975682;28;967;-82
2022/09/29 11:51:28;;;;;;;;;;;;;;;21.28;30.94;97098.53;4960545;28;1236;-82
2022/09/29 11:53:53;;;;;;;;;;;;;;;21.32;31.27;97079.41;4976056;28;760;-82
2022/09/29 11:56:22;;;;;;;;;;;;;;;21.23;31.09;97085.00;4976364;28;810;-82
2022/09/29 12:02:37;;;;;;;;;;;;;;;21.06;31.11;97121.22;4976485;28;934;-83
2022/09/29 12:05:21;;;;;;;;;;;;;;;21.10;30.67;97117.47;4976056;28;736;-78
2022/09/29 12:07:49;;;;;;;;;;;;;;;21.22;30.39;97123.03;5012069;28;1914;-82
2022/09/29 12:10:35;;;;;;;;;;;;;;;21.28;30.01;97129.66;5000766;28;724;-83
2022/09/29 12:13:03;;;;;;;;;;;;;;;21.14;29.94;97116.09;5000941;28;901;-82
2022/09/29 12:15:32;;;;;;;;;;;;;;;21.04;30.11;97108.81;5000976;28;724;-82
2022/09/29 12:17:58;;;;;;;;;;;;;;;21.12;30.17;97118.56;5016994;28;1288;-82
2022/09/29 12:20:25;;;;;;;;;;;;;;;20.96;30.08;97121.63;5017036;28;783;-82
2022/09/29 12:22:52;;;;;;;;;;;;;;;21.07;29.85;97105.03;5000169;28;724;-82
2022/09/29 12:29:07;;;;;;;;;;;;;;;21.29;30.52;97111.41;5001134;28;645;-82
2022/09/29 12:31:40;;;;;;;;;;;;;;;21.38;30.61;97113.53;5016384;28;1206;-82
2022/09/29 12:34:10;;;;;;;;;;;;;;;21.05;31.03;97113.19;5016213;28;712;-82
2022/09/29 12:37:01;;;;;;;;;;;;;;;20.98;31.17;97121.94;5016294;28;747;-82
2022/09/29 12:39:45;;;;;;;;;;;;;;;20.94;31.04;97107.16;4999548;28;942;-81
2022/09/29 12:42:10;;;;;;;;;;;;;;;21.04;30.72;97105.97;5000899;28;785;-82
2022/09/29 12:44:40;;;;;;;;;;;;;;;21.01;30.67;97116.16;5000500;28;811;-82
2022/09/29 12:47:12;;;;;;;;;;;;;;;20.89;30.78;97122.69;5015626;28;1963;-81
2022/09/29 12:49:49;;;;;;;;;;;;;;;20.94;30.63;97116.44;5000417;28;735;-82
2022/09/29 12:52:17;;;;;;;;;;;;;;;20.99;30.19;97115.06;5000420;28;814;-82
2022/09/29 12:54:48;;;;;;;;;;;;;;;21.26;30.20;97115.19;4999928;28;782;-83
2022/09/29 12:57:14;;;;;;;;;;;;;;;21.35;30.45;97113.66;4999626;28;1126;-81
2022/09/29 12:59:42;;;;;;;;;;;;;;;21.32;30.30;97110.53;4983280;28;1123;-82
2022/09/29 13:02:20;;;;;;;;;;;;;;;21.05;30.65;97107.53;5000544;28;708;-81
2022/09/29 13:05:05;;;;;;;;;;;;;;;21.20;30.30;97119.88;5015452;28;1328;-81
2022/09/29 13:07:38;;;;;;;;;;;;;;;20.97;30.89;97106.22;5000442;28;1903;-81
2022/09/29 13:10:03;;;;;;;;;;;;;;;20.67;31.14;97105.72;5000311;28;724;-81
2022/09/29 13:12:39;;;;;;;;;;;;;;;21.05;30.50;97107.53;5015326;28;1625;-81
2022/09/29 13:15:17;;;;;;;;;;;;;;;21.20;29.96;97108.56;5000240;28;732;-81
2022/09/29 13:18:01;;;;;;;;;;;;;;;21.05;30.23;97104.72;5000231;28;803;-84
2022/09/29 13:23:37;;;;;;;;;;;;;;;20.89;30.11;97130.38;4999983;28;845;-82
2022/09/29 13:26:04;;;;;;;;;;;;;;;20.77;30.48;97127.16;5014636;28;1902;-82
2022/09/29 13:28:34;;;;;;;;;;;;;;;21.01;30.37;97135.94;4999293;28;783;-81
2022/09/29 13:31:10;;;;;;;;;;;;;;;21.21;30.09;97121.47;5013959;28;1481;-82
2022/09/29 13:33:36;;;;;;;;;;;;;;;21.07;30.42;97122.78;5014148;28;735;-82
2022/09/29 13:36:01;;;;;;;;;;;;;;;21.07;30.24;97133.31;4999080;28;806;-81
2022/09/29 13:38:31;;;;;;;;;;;;;;;21.25;29.90;97130.59;4998563;28;818;-82